Time;durP1;ratioP1;P1;durP2;ratioP2;P2;SDS_P1;SDS_P2;PMS_P1;PMS_P2;Temp;Humidity;BMP_temperature;BMP_pressure;BME280_temperature;BME280_humidity;BME280_pressure;Samples;Min_cycle;Max_cycle;Signal;HPM_P1;HPM_P2
2023/07/19 00:01:04;;;;;;;2.47;2.03;;;21.90;43.70;;;;;;5044044;22;20473;-90
2023/07/19 00:03:32;;;;;;;5.25;2.90;;;21.80;43.90;;;;;;5041804;23;20061;-57
2023/07/19 00:06:01;;;;;;;4.28;2.55;;;21.80;43.90;;;;;;5015473;23;20042;-55
2023/07/19 00:08:28;;;;;;;7.22;2.78;;;21.80;44.00;;;;;;5006150;28;20058;-58
2023/07/19 00:10:57;;;;;;;5.18;3.15;;;21.80;44.00;;;;;;5005865;28;20490;-55
2023/07/19 00:13:24;;;;;;;4.13;2.30;;;21.70;44.10;;;;;;5003004;28;20061;-59
2023/07/19 00:15:52;;;;;;;4.18;2.40;;;21.70;44.10;;;;;;5002423;28;20053;-55
2023/07/19 00:18:19;;;;;;;3.45;2.53;;;21.70;44.30;;;;;;5004346;28;20057;-54
2023/07/19 00:20:46;;;;;;;6.40;3.00;;;21.60;44.20;;;;;;5004923;28;20053;-55
2023/07/19 00:23:14;;;;;;;6.22;2.92;;;21.60;44.30;;;;;;5004687;28;20049;-57
2023/07/19 00:25:41;;;;;;;5.78;3.05;;;21.60;44.40;;;;;;5004255;28;20076;-54
2023/07/19 00:28:09;;;;;;;4.00;2.53;;;21.60;44.40;;;;;;5004621;28;20050;-55
2023/07/19 00:30:37;;;;;;;4.30;2.67;;;21.50;44.60;;;;;;5002865;28;20058;-56
2023/07/19 00:33:04;;;;;;;5.80;3.17;;;21.50;44.70;;;;;;5004098;28;20061;-55
2023/07/19 00:35:32;;;;;;;5.88;2.83;;;21.50;44.80;;;;;;5003763;28;20382;-54
2023/07/19 00:37:59;;;;;;;3.58;2.55;;;21.40;44.80;;;;;;5003301;28;20112;-55
2023/07/19 00:40:27;;;;;;;6.53;2.50;;;21.40;45.00;;;;;;5004635;28;20057;-54
2023/07/19 00:42:57;;;;;;;3.92;2.42;;;21.40;45.00;;;;;;5004456;28;20076;-58
2023/07/19 00:45:26;;;;;;;4.18;2.72;;;21.40;45.10;;;;;;5002139;28;20058;-56
2023/07/19 00:47:55;;;;;;;4.30;2.38;;;21.30;45.20;;;;;;5003167;28;20053;-58
2023/07/19 00:50:23;;;;;;;4.85;2.70;;;21.30;45.30;;;;;;5003327;28;20068;-55
2023/07/19 00:52:52;;;;;;;3.00;2.40;;;21.20;45.30;;;;;;5003907;28;20053;-53
2023/07/19 00:55:20;;;;;;;4.35;2.83;;;21.20;45.40;;;;;;5004017;28;20068;-57
2023/07/19 00:57:48;;;;;;;4.43;2.90;;;21.20;45.40;;;;;;5002976;28;20058;-53
2023/07/19 01:00:16;;;;;;;3.90;2.60;;;21.10;45.30;;;;;;5002416;28;20057;-61
2023/07/19 01:02:45;;;;;;;6.95;2.90;;;21.10;45.40;;;;;;5026064;23;20377;-51
2023/07/19 01:05:12;;;;;;;6.43;3.17;;;21.10;45.50;;;;;;5020706;28;20061;-52
2023/07/19 01:07:40;;;;;;;3.85;2.30;;;21.00;45.50;;;;;;5020265;28;20712;-50
2023/07/19 01:10:08;;;;;;;4.75;3.00;;;21.00;45.60;;;;;;5017439;28;20052;-48
2023/07/19 01:12:35;;;;;;;5.20;2.92;;;21.00;45.70;;;;;;5019975;28;20045;-48
2023/07/19 01:15:08;;;;;;;4.72;2.72;;;20.90;45.70;;;;;;5019045;28;20084;-49
2023/07/19 01:17:35;;;;;;;4.57;2.63;;;20.90;45.80;;;;;;5018339;28;20053;-51
2023/07/19 01:20:06;;;;;;;4.80;2.78;;;20.90;46.10;;;;;;5020143;28;20590;-49
2023/07/19 01:22:34;;;;;;;5.43;2.75;;;20.80;46.00;;;;;;5019084;28;20064;-52
2023/07/19 01:25:02;;;;;;;7.30;2.88;;;20.80;46.10;;;;;;5020047;28;20064;-53
2023/07/19 01:27:30;;;;;;;5.85;2.80;;;20.80;46.30;;;;;;5020112;28;20508;-46
2023/07/19 01:29:57;;;;;;;5.88;3.42;;;20.80;46.40;;;;;;5020121;28;20049;-48
2023/07/19 01:32:24;;;;;;;6.18;2.88;;;20.70;46.40;;;;;;5017267;28;20076;-47
2023/07/19 01:34:51;;;;;;;4.15;2.50;;;20.70;46.40;;;;;;5020898;28;20057;-50
2023/07/19 01:37:18;;;;;;;5.53;3.03;;;20.70;46.40;;;;;;5016959;28;20679;-49
2023/07/19 01:39:47;;;;;;;3.80;2.83;;;20.70;46.50;;;;;;5019523;28;20057;-48
2023/07/19 01:42:14;;;;;;;6.00;2.97;;;20.70;46.50;;;;;;5019212;28;20422;-50
2023/07/19 01:44:41;;;;;;;3.83;2.60;;;20.70;46.50;;;;;;5019565;28;20065;-49
2023/07/19 01:47:09;;;;;;;3.72;2.65;;;20.60;46.50;;;;;;5015872;28;20045;-52
2023/07/19 01:49:37;;;;;;;5.15;2.90;;;20.60;46.60;;;;;;5019008;28;20049;-49
2023/07/19 01:52:04;;;;;;;3.72;2.63;;;20.60;46.60;;;;;;5019822;28;20056;-49
2023/07/19 01:54:32;;;;;;;4.72;2.65;;;20.50;46.70;;;;;;5019664;28;20497;-51
2023/07/19 01:57:00;;;;;;;6.60;2.63;;;20.50;46.60;;;;;;5015730;28;20053;-51
2023/07/19 01:59:27;;;;;;;5.20;2.72;;;20.50;46.60;;;;;;5018952;28;20052;-52
2023/07/19 02:01:55;;;;;;;4.25;2.70;;;20.50;46.50;;;;;;5015667;28;20404;-51
2023/07/19 02:04:22;;;;;;;7.68;3.10;;;20.40;46.50;;;;;;5006158;28;20526;-46
2023/07/19 02:06:49;;;;;;;4.50;2.75;;;20.40;47.10;;;;;;5004054;28;20053;-44
2023/07/19 02:09:17;;;;;;;6.65;2.90;;;20.40;46.70;;;;;;5004627;28;20050;-51
2023/07/19 02:11:44;;;;;;;4.93;2.70;;;20.40;46.90;;;;;;5004498;28;20050;-48
2023/07/19 02:14:12;;;;;;;4.20;2.38;;;20.30;46.90;;;;;;5004513;28;20056;-49
2023/07/19 02:16:40;;;;;;;3.70;2.60;;;20.30;47.00;;;;;;5001940;28;20057;-48
2023/07/19 02:19:08;;;;;;;4.55;2.58;;;20.30;46.90;;;;;;5003476;28;20042;-53
2023/07/19 02:21:35;;;;;;;4.45;3.13;;;20.20;46.90;;;;;;5004063;28;20065;-48
2023/07/19 02:24:02;;;;;;;4.85;2.60;;;20.20;47.00;;;;;;5003533;28;20058;-47
2023/07/19 02:26:29;;;;;;;4.82;2.88;;;20.20;47.00;;;;;;5004959;28;20052;-49
2023/07/19 02:28:57;;;;;;;5.40;2.78;;;20.10;47.00;;;;;;5004128;28;20050;-50
2023/07/19 02:31:25;;;;;;;4.38;2.67;;;20.10;47.10;;;;;;5002106;28;20436;-49
2023/07/19 02:33:52;;;;;;;5.75;2.88;;;20.10;47.20;;;;;;5003021;28;20505;-47
2023/07/19 02:36:20;;;;;;;8.63;2.83;;;20.00;47.20;;;;;;5004117;28;20414;-49
2023/07/19 02:38:47;;;;;;;5.15;3.20;;;20.00;47.30;;;;;;5003196;28;20061;-52
2023/07/19 02:41:14;;;;;;;4.15;2.65;;;20.00;47.40;;;;;;5002949;28;20526;-50
2023/07/19 02:43:41;;;;;;;3.08;2.30;;;20.00;47.50;;;;;;5007533;28;20074;-46
2023/07/19 02:46:09;;;;;;;6.15;3.00;;;19.90;47.50;;;;;;5005851;28;20057;-51
2023/07/19 02:48:37;;;;;;;5.32;3.00;;;20.00;47.60;;;;;;5006213;28;20050;-51
2023/07/19 02:51:05;;;;;;;6.07;2.90;;;19.90;47.60;;;;;;5006605;28;20413;-53
2023/07/19 02:53:32;;;;;;;4.90;2.72;;;19.90;47.60;;;;;;5007067;28;20069;-50
2023/07/19 02:55:59;;;;;;;4.88;2.72;;;19.90;47.70;;;;;;5006333;28;21678;-48
2023/07/19 02:58:27;;;;;;;5.15;2.78;;;19.90;47.70;;;;;;5006555;28;20056;-50
2023/07/19 03:00:54;;;;;;;6.38;3.10;;;19.80;47.80;;;;;;5006668;28;20046;-54
2023/07/19 03:03:22;;;;;;;4.43;2.53;;;19.80;47.80;;;;;;5007472;28;20141;-54
2023/07/19 03:05:50;;;;;;;4.10;2.42;;;19.70;47.70;;;;;;5006167;28;20050;-49
2023/07/19 03:08:18;;;;;;;4.63;2.80;;;19.80;47.80;;;;;;5007106;28;20508;-55
2023/07/19 03:10:45;;;;;;;4.00;2.42;;;19.70;47.90;;;;;;5006124;28;20057;-61
2023/07/19 03:13:12;;;;;;;4.90;2.80;;;19.70;47.90;;;;;;5008405;28;20512;-60
2023/07/19 03:15:39;;;;;;;4.28;2.83;;;19.60;47.90;;;;;;5005950;28;20873;-56
2023/07/19 03:18:07;;;;;;;5.25;2.45;;;19.60;47.90;;;;;;5007886;28;20060;-57
2023/07/19 03:20:34;;;;;;;4.85;3.03;;;19.60;47.90;;;;;;5007042;28;20416;-59
2023/07/19 03:23:03;;;;;;;3.85;2.58;;;19.60;47.90;;;;;;5006082;28;20057;-60
2023/07/19 03:25:30;;;;;;;4.55;2.70;;;19.60;47.90;;;;;;5007217;28;20501;-60
2023/07/19 03:27:57;;;;;;;5.60;2.90;;;19.60;47.90;;;;;;5006999;28;20378;-60
2023/07/19 03:30:25;;;;;;;4.97;2.58;;;19.60;48.00;;;;;;5007332;28;20053;-60
2023/07/19 03:32:52;;;;;;;4.93;2.80;;;19.50;48.00;;;;;;5006043;28;20092;-60
2023/07/19 03:35:20;;;;;;;5.35;2.95;;;19.50;47.90;;;;;;5006548;28;20058;-60
2023/07/19 03:37:47;;;;;;;5.30;2.75;;;19.50;47.90;;;;;;5006595;28;20054;-61
2023/07/19 03:40:16;;;;;;;5.53;2.67;;;19.50;47.90;;;;;;5006662;28;20061;-56
2023/07/19 03:42:43;;;;;;;4.38;2.50;;;19.40;48.00;;;;;;5006630;28;20068;-58
2023/07/19 03:45:11;;;;;;;5.45;2.88;;;19.40;48.00;;;;;;5006172;28;20060;-60
2023/07/19 03:47:39;;;;;;;3.92;2.58;;;19.40;48.10;;;;;;5006368;28;20508;-61
2023/07/19 03:50:08;;;;;;;4.63;2.75;;;19.40;48.20;;;;;;5007370;28;20054;-61
2023/07/19 03:52:35;;;;;;;4.80;2.65;;;19.40;48.30;;;;;;5005679;28;20062;-60
2023/07/19 03:55:04;;;;;;;4.68;2.70;;;19.30;48.30;;;;;;5005638;28;20508;-60
2023/07/19 03:57:32;;;;;;;4.40;2.45;;;19.40;48.50;;;;;;5004765;28;20046;-53
2023/07/19 03:59:59;;;;;;;5.78;2.75;;;19.40;48.50;;;;;;5006141;28;20061;-58
2023/07/19 04:02:27;;;;;;;7.30;3.00;;;19.30;48.40;;;;;;5005385;28;20133;-56
2023/07/19 04:04:54;;;;;;;4.15;2.75;;;19.30;48.40;;;;;;5005362;28;20064;-61
2023/07/19 04:07:21;;;;;;;4.75;2.85;;;19.30;48.40;;;;;;5008083;28;20061;-60
2023/07/19 04:09:48;;;;;;;6.03;3.08;;;19.30;48.50;;;;;;5005698;28;20054;-59
2023/07/19 04:12:16;;;;;;;4.20;2.95;;;19.30;48.50;;;;;;5005642;28;20474;-61
2023/07/19 04:14:45;;;;;;;6.32;2.70;;;19.20;48.50;;;;;;5005690;28;20057;-61
2023/07/19 04:17:12;;;;;;;5.25;2.97;;;19.20;48.60;;;;;;5006620;28;20394;-59
2023/07/19 04:19:39;;;;;;;5.20;3.00;;;19.20;48.60;;;;;;5003658;28;20621;-60
2023/07/19 04:22:07;;;;;;;5.60;3.75;;;19.20;48.60;;;;;;5005936;28;20414;-60
2023/07/19 04:24:34;;;;;;;8.02;3.70;;;19.20;48.60;;;;;;5005157;28;20053;-61
2023/07/19 04:27:01;;;;;;;5.43;2.75;;;19.20;48.50;;;;;;5005543;28;20057;-55
2023/07/19 04:29:28;;;;;;;4.63;2.80;;;19.20;48.60;;;;;;5005696;28;20490;-58
2023/07/19 04:31:57;;;;;;;3.78;2.72;;;19.20;48.60;;;;;;5005404;28;20057;-61
2023/07/19 04:34:24;;;;;;;6.32;2.92;;;19.20;48.70;;;;;;5007578;28;20053;-57
2023/07/19 04:36:51;;;;;;;4.82;2.88;;;19.10;48.60;;;;;;5005495;28;20061;-55
2023/07/19 04:39:19;;;;;;;4.93;2.83;;;19.20;48.70;;;;;;5005642;28;20080;-57
2023/07/19 04:41:46;;;;;;;4.75;2.70;;;19.10;48.70;;;;;;5006136;28;20065;-58
2023/07/19 04:44:13;;;;;;;5.75;2.78;;;19.20;48.80;;;;;;5004604;28;20053;-59
2023/07/19 04:46:40;;;;;;;7.90;2.90;;;19.10;48.90;;;;;;5004005;28;20049;-59
2023/07/19 04:49:09;;;;;;;4.18;2.75;;;19.10;49.00;;;;;;5004797;28;20050;-60
2023/07/19 04:51:38;;;;;;;4.20;2.70;;;19.10;49.10;;;;;;5006152;28;20053;-60
2023/07/19 04:54:05;;;;;;;7.22;4.88;;;19.10;49.00;;;;;;5004777;28;20053;-61
2023/07/19 04:56:33;;;;;;;8.45;4.55;;;19.10;49.00;;;;;;5004813;28;20053;-61
2023/07/19 04:59:00;;;;;;;10.43;4.82;;;19.20;49.10;;;;;;5005527;28;20065;-61
2023/07/19 05:01:27;;;;;;;8.07;3.33;;;19.20;49.10;;;;;;5002803;28;20827;-59
2023/07/19 05:03:54;;;;;;;5.60;3.03;;;19.20;49.30;;;;;;5004011;28;20061;-60
2023/07/19 05:06:23;;;;;;;4.30;2.92;;;19.20;49.40;;;;;;5004602;28;20061;-61
2023/07/19 05:08:50;;;;;;;4.82;2.88;;;19.20;49.50;;;;;;5005195;28;20046;-58
2023/07/19 05:11:19;;;;;;;5.03;3.15;;;19.20;49.60;;;;;;5003908;28;20825;-60
2023/07/19 05:13:46;;;;;;;3.97;2.75;;;19.20;49.70;;;;;;5004655;28;20064;-61
2023/07/19 05:16:14;;;;;;;5.25;3.08;;;19.20;49.70;;;;;;5002660;28;20072;-60
2023/07/19 05:18:41;;;;;;;5.68;3.00;;;19.20;49.70;;;;;;5004390;28;20053;-61
2023/07/19 05:21:09;;;;;;;4.45;2.65;;;19.20;49.70;;;;;;5004160;28;20056;-53
2023/07/19 05:23:38;;;;;;;4.95;2.63;;;19.30;49.90;;;;;;5003712;28;20493;-60
2023/07/19 05:26:05;;;;;;;5.50;3.30;;;19.30;50.00;;;;;;5004682;28;20069;-57
2023/07/19 05:28:32;;;;;;;3.50;2.65;;;19.30;50.00;;;;;;5004322;28;20058;-57
2023/07/19 05:31:02;;;;;;;6.78;3.28;;;19.30;50.10;;;;;;5003560;28;20493;-61
2023/07/19 05:33:29;;;;;;;3.70;2.80;;;19.40;50.30;;;;;;5005644;28;20054;-61
2023/07/19 05:35:56;;;;;;;3.67;2.95;;;19.30;50.20;;;;;;5003905;28;20053;-60
2023/07/19 05:38:24;;;;;;;5.20;3.25;;;19.40;50.40;;;;;;5004151;28;20065;-60
2023/07/19 05:40:52;;;;;;;4.30;2.83;;;19.40;50.40;;;;;;5003904;28;20050;-60
2023/07/19 05:43:20;;;;;;;4.30;2.72;;;19.40;50.60;;;;;;5004361;28;20064;-55
2023/07/19 05:45:47;;;;;;;4.57;2.83;;;19.40;50.50;;;;;;5001941;28;20057;-60
2023/07/19 05:48:15;;;;;;;7.10;3.08;;;19.50;50.60;;;;;;5004386;28;20509;-60
2023/07/19 05:50:42;;;;;;;5.60;2.78;;;19.50;50.70;;;;;;5005828;28;20053;-60
2023/07/19 05:53:09;;;;;;;4.75;2.85;;;19.60;50.70;;;;;;5003995;28;20057;-60
2023/07/19 05:55:37;;;;;;;6.72;2.78;;;19.60;50.90;;;;;;5003935;28;20406;-57
2023/07/19 05:58:05;;;;;;;4.85;3.00;;;19.60;50.90;;;;;;5004086;28;20053;-61
2023/07/19 06:00:32;;;;;;;9.48;4.03;;;19.70;51.00;;;;;;5002387;28;20058;-57
2023/07/19 06:03:00;;;;;;;8.35;3.88;;;19.70;51.40;;;;;;5003440;28;20425;-57
2023/07/19 06:05:27;;;;;;;6.85;3.63;;;19.80;51.70;;;;;;5002952;28;20057;-56
2023/07/19 06:07:55;;;;;;;5.25;3.50;;;19.80;51.70;;;;;;5003895;28;20054;-54
2023/07/19 06:10:22;;;;;;;15.05;3.92;;;19.80;51.60;;;;;;5003019;28;20568;-58
2023/07/19 06:12:49;;;;;;;7.57;3.75;;;19.80;51.50;;;;;;5003716;28;20053;-59
2023/07/19 06:15:18;;;;;;;8.32;3.60;;;19.90;51.60;;;;;;5002268;28;20061;-56
2023/07/19 06:17:46;;;;;;;6.65;3.80;;;19.90;51.50;;;;;;5004309;28;20050;-55
2023/07/19 06:20:13;;;;;;;9.07;3.72;;;19.90;51.70;;;;;;5006988;28;20057;-56
2023/07/19 06:22:41;;;;;;;7.38;3.50;;;20.00;52.10;;;;;;5006992;28;20596;-57
2023/07/19 06:25:09;;;;;;;8.07;3.60;;;19.90;52.10;;;;;;5008399;28;20387;-58
2023/07/19 06:27:36;;;;;;;8.07;4.35;;;20.00;52.10;;;;;;5007034;28;20061;-49
2023/07/19 06:30:04;;;;;;;9.82;4.70;;;20.00;52.00;;;;;;5006324;28;20061;-53
2023/07/19 06:32:33;;;;;;;8.15;4.00;;;20.00;51.70;;;;;;5005886;28;20413;-57
2023/07/19 06:35:00;;;;;;;8.48;4.20;;;20.00;51.70;;;;;;5008424;28;20049;-60
2023/07/19 06:37:27;;;;;;;8.77;4.30;;;20.00;51.70;;;;;;5008050;28;20054;-55
2023/07/19 06:39:55;;;;;;;5.63;3.28;;;20.00;51.60;;;;;;5007143;28;20390;-58
2023/07/19 06:42:22;;;;;;;5.32;3.10;;;20.00;51.50;;;;;;5006775;28;20062;-59
2023/07/19 06:44:49;;;;;;;5.60;3.45;;;20.00;51.40;;;;;;5007176;28;20054;-57
2023/07/19 06:47:16;;;;;;;4.82;3.25;;;20.10;51.40;;;;;;5006210;28;20628;-54
2023/07/19 06:49:45;;;;;;;6.78;3.78;;;20.10;51.50;;;;;;5006334;28;20046;-56
2023/07/19 06:52:12;;;;;;;6.70;3.53;;;20.20;51.50;;;;;;5006820;28;20061;-60
2023/07/19 06:54:39;;;;;;;6.25;3.40;;;20.30;51.50;;;;;;5006591;28;20088;-46
2023/07/19 06:57:07;;;;;;;9.02;3.35;;;20.40;51.40;;;;;;5007936;28;20064;-45
2023/07/19 06:59:35;;;;;;;6.43;3.50;;;20.40;51.30;;;;;;5007010;28;20076;-47
2023/07/19 07:02:02;;;;;;;5.80;3.08;;;20.50;51.20;;;;;;5007011;28;20050;-49
2023/07/19 07:04:29;;;;;;;6.00;3.22;;;20.60;51.10;;;;;;5006620;28;20054;-52
2023/07/19 07:06:58;;;;;;;8.52;3.10;;;20.60;51.00;;;;;;5006524;28;20057;-47
2023/07/19 07:09:25;;;;;;;7.70;3.40;;;20.70;51.00;;;;;;5007059;28;20057;-50
2023/07/19 07:11:52;;;;;;;5.70;3.28;;;20.80;51.00;;;;;;5005430;28;20054;-49
2023/07/19 07:14:20;;;;;;;7.07;3.50;;;20.80;51.00;;;;;;5007500;28;20060;-51
2023/07/19 07:16:47;;;;;;;11.02;3.20;;;20.90;51.00;;;;;;5005566;28;20744;-50
2023/07/19 07:19:14;;;;;;;5.35;2.83;;;20.90;50.60;;;;;;5008017;28;20054;-46
2023/07/19 07:21:42;;;;;;;4.82;3.10;;;21.00;50.40;;;;;;5005411;28;20053;-47
2023/07/19 07:24:10;;;;;;;4.78;3.13;;;21.00;50.10;;;;;;5006261;28;20494;-44
2023/07/19 07:26:37;;;;;;;5.88;3.30;;;21.10;50.00;;;;;;5006035;28;20061;-46
2023/07/19 07:29:05;;;;;;;5.38;2.50;;;21.10;49.90;;;;;;5005742;28;20045;-45
2023/07/19 07:31:32;;;;;;;6.57;3.10;;;21.10;49.80;;;;;;5006974;28;20060;-50
2023/07/19 07:34:00;;;;;;;5.50;2.90;;;21.20;49.80;;;;;;5007051;28;20433;-46
2023/07/19 07:36:27;;;;;;;6.07;3.15;;;21.30;49.70;;;;;;5006908;28;20057;-46
2023/07/19 07:38:54;;;;;;;4.88;3.20;;;21.30;49.70;;;;;;5006695;28;20054;-44
2023/07/19 07:41:25;;;;;;;7.88;3.28;;;21.30;49.70;;;;;;5006488;28;20387;-46
2023/07/19 07:43:56;;;;;;;9.20;3.58;;;21.40;49.70;;;;;;5006561;28;20061;-49
2023/07/19 07:46:28;;;;;;;7.60;2.80;;;21.40;49.30;;;;;;5004805;28;20054;-45
2023/07/19 07:48:59;;;;;;;8.45;3.13;;;21.50;49.10;;;;;;5007057;28;20050;-48
2023/07/19 07:51:27;;;;;;;6.38;2.95;;;21.60;48.70;;;;;;5007179;28;20062;-45
2023/07/19 07:53:54;;;;;;;9.43;3.15;;;21.60;49.00;;;;;;5005924;28;20057;-47
2023/07/19 07:56:24;;;;;;;5.20;3.17;;;21.70;49.00;;;;;;5004432;28;20065;-47
2023/07/19 07:58:52;;;;;;;11.10;3.28;;;21.80;48.90;;;;;;5005371;28;20060;-46
2023/07/19 08:01:19;;;;;;;10.80;3.55;;;21.80;48.70;;;;;;5003911;28;20053;-49
2023/07/19 08:03:49;;;;;;;11.20;3.40;;;21.90;48.10;;;;;;5004599;28;20403;-45
2023/07/19 08:06:17;;;;;;;6.70;3.35;;;21.90;47.70;;;;;;5006745;28;20516;-59
2023/07/19 08:18:53;;;;;;;7.95;3.80;;;22.10;47.00;;;;;;5008607;28;20053;-58
2023/07/19 08:21:21;;;;;;;15.38;3.85;;;22.20;47.60;;;;;;5004445;28;20050;-57
2023/07/19 08:23:53;;;;;;;8.95;3.70;;;22.20;47.50;;;;;;5006935;28;20635;-58
2023/07/19 08:26:20;;;;;;;6.82;3.00;;;22.30;47.10;;;;;;5005291;28;20050;-58
2023/07/19 08:28:47;;;;;;;8.20;4.15;;;22.30;47.30;;;;;;5005170;28;20516;-60
2023/07/19 08:31:16;;;;;;;9.52;4.20;;;22.40;46.30;;;;;;5003803;28;20535;-58
2023/07/19 08:33:43;;;;;;;16.30;4.30;;;22.50;46.20;;;;;;5005550;28;20057;-60
2023/07/19 08:36:11;;;;;;;13.70;4.68;;;22.50;46.50;;;;;;5004652;28;20057;-57
2023/07/19 08:38:39;;;;;;;11.07;3.95;;;22.70;45.40;;;;;;5005135;28;20421;-58
2023/07/19 08:41:07;;;;;;;8.48;3.83;;;22.70;45.60;;;;;;5004299;28;20056;-60
2023/07/19 08:43:36;;;;;;;13.82;4.35;;;22.70;46.40;;;;;;5004915;28;20061;-59
2023/07/19 08:46:03;;;;;;;10.68;4.20;;;22.80;46.20;;;;;;5003622;28;20511;-61
2023/07/19 08:48:32;;;;;;;11.60;5.28;;;22.90;46.20;;;;;;5004587;28;20049;-57
2023/07/19 08:51:01;;;;;;;13.88;5.10;;;23.00;45.30;;;;;;5004283;28;20045;-59
2023/07/19 08:53:29;;;;;;;10.90;3.75;;;23.00;45.50;;;;;;5005927;28;20068;-54
2023/07/19 08:55:57;;;;;;;10.88;3.70;;;23.00;45.80;;;;;;5005307;28;20054;-53
2023/07/19 08:58:25;;;;;;;12.50;4.18;;;23.00;45.70;;;;;;5003111;28;20057;-53
2023/07/19 09:00:52;;;;;;;14.13;4.25;;;23.10;45.40;;;;;;5001685;28;20489;-55
2023/07/19 09:03:20;;;;;;;8.75;3.72;;;23.10;45.50;;;;;;5003279;28;20053;-58
2023/07/19 09:05:47;;;;;;;11.32;4.30;;;23.10;46.10;;;;;;5003881;28;20053;-57
2023/07/19 09:08:15;;;;;;;7.45;3.78;;;23.00;46.70;;;;;;5005660;28;20076;-59
2023/07/19 09:10:47;;;;;;;12.82;4.20;;;23.00;46.30;;;;;;5003218;28;20058;-59
2023/07/19 09:13:19;;;;;;;9.65;4.03;;;23.00;46.30;;;;;;5006018;28;20064;-55
2023/07/19 09:15:48;;;;;;;9.43;4.00;;;23.00;46.20;;;;;;5003026;28;20054;-51
2023/07/19 09:18:15;;;;;;;10.13;3.80;;;22.90;46.40;;;;;;5005208;28;20057;-50
2023/07/19 09:20:43;;;;;;;8.00;4.25;;;22.90;46.80;;;;;;5003914;28;20054;-45
2023/07/19 09:23:10;;;;;;;9.68;4.00;;;22.90;46.90;;;;;;5004176;28;20053;-45
2023/07/19 09:25:53;;;;;;;10.85;4.15;;;22.90;47.00;;;;;;5003782;28;20054;-47
2023/07/19 09:28:23;;;;;;;9.10;4.70;;;22.90;47.20;;;;;;5003999;28;20057;-47
2023/07/19 09:30:59;;;;;;;6.38;3.85;;;22.90;47.00;;;;;;5004017;28;20046;-52
2023/07/19 09:33:26;;;;;;;7.40;3.45;;;22.90;47.20;;;;;;5005187;28;20057;-51
2023/07/19 09:35:55;;;;;;;12.30;4.40;;;22.90;46.90;;;;;;5004505;28;20049;-47
2023/07/19 09:38:23;;;;;;;7.95;4.05;;;23.00;46.80;;;;;;5003746;28;20441;-47
2023/07/19 09:40:53;;;;;;;9.27;3.80;;;23.00;46.40;;;;;;5003704;28;20054;-52
2023/07/19 09:43:21;;;;;;;8.93;4.00;;;23.00;46.30;;;;;;5004055;28;20049;-47
2023/07/19 09:45:50;;;;;;;8.27;4.20;;;23.10;46.00;;;;;;5002198;28;20073;-53
2023/07/19 09:48:18;;;;;;;9.32;3.75;;;23.10;46.10;;;;;;5004383;28;20049;-47
2023/07/19 09:50:49;;;;;;;8.77;3.92;;;23.10;46.20;;;;;;5003377;28;20410;-53
2023/07/19 09:53:16;;;;;;;8.60;3.10;;;23.20;46.20;;;;;;5004082;28;20512;-49
2023/07/19 09:55:48;;;;;;;10.85;3.90;;;23.20;46.00;;;;;;5003846;28;20413;-46
2023/07/19 09:58:18;;;;;;;10.55;3.95;;;23.30;46.10;;;;;;5003174;28;20058;-50
2023/07/19 10:00:47;;;;;;;16.23;4.53;;;23.30;46.00;;;;;;5001510;28;20065;-46
2023/07/19 10:03:19;;;;;;;10.02;3.70;;;23.30;45.50;;;;;;5003493;28;20149;-48
2023/07/19 10:05:46;;;;;;;10.88;4.07;;;23.40;45.60;;;;;;5004892;28;20057;-46
2023/07/19 10:08:16;;;;;;;7.82;3.58;;;23.40;44.60;;;;;;5004529;28;20093;-48
2023/07/19 10:10:43;;;;;;;12.43;3.33;;;23.40;44.80;;;;;;5003770;28;20513;-51
2023/07/19 10:13:13;;;;;;;7.72;3.78;;;23.40;44.50;;;;;;5004093;28;20050;-46
2023/07/19 10:15:42;;;;;;;9.27;3.85;;;23.40;44.20;;;;;;5001880;28;20520;-49
2023/07/19 10:18:13;;;;;;;8.10;3.45;;;23.50;44.20;;;;;;5005027;28;20065;-47
2023/07/19 10:20:43;;;;;;;8.27;3.70;;;23.50;44.60;;;;;;5004094;28;20057;-45
2023/07/19 10:23:15;;;;;;;6.45;3.60;;;23.50;44.40;;;;;;5003863;28;20046;-50
2023/07/19 10:25:47;;;;;;;9.88;4.13;;;23.50;44.30;;;;;;5004782;28;20400;-55
2023/07/19 10:28:25;;;;;;;8.95;3.75;;;23.50;44.30;;;;;;5003658;28;20061;-58
2023/07/19 10:30:55;;;;;;;6.70;3.60;;;23.50;44.30;;;;;;5003785;28;20057;-57
2023/07/19 10:33:24;;;;;;;8.15;4.18;;;23.50;44.20;;;;;;5004335;28;20493;-58
2023/07/19 10:35:53;;;;;;;13.68;4.93;;;23.60;44.60;;;;;;5003649;28;20413;-57
2023/07/19 10:38:22;;;;;;;8.88;4.43;;;23.60;44.60;;;;;;5004259;28;20062;-57
2023/07/19 10:40:54;;;;;;;7.47;4.35;;;23.60;44.10;;;;;;5002112;28;20406;-56
2023/07/19 10:43:21;;;;;;;10.85;4.32;;;23.60;44.10;;;;;;5004590;28;20064;-54
2023/07/19 10:45:49;;;;;;;10.00;4.13;;;23.60;44.10;;;;;;5001596;28;20173;-54
2023/07/19 10:48:17;;;;;;;12.65;4.60;;;23.60;44.10;;;;;;5002815;28;20054;-56
2023/07/19 10:50:46;;;;;;;13.60;5.40;;;23.60;44.10;;;;;;5003635;28;20765;-57
2023/07/19 10:53:14;;;;;;;13.23;4.75;;;23.50;44.20;;;;;;5002553;28;20065;-57
2023/07/19 10:55:42;;;;;;;11.43;4.32;;;23.50;44.60;;;;;;5003669;28;20405;-59
2023/07/19 10:58:09;;;;;;;11.63;3.85;;;23.50;44.90;;;;;;5003145;28;20057;-57
2023/07/19 11:00:38;;;;;;;7.57;4.78;;;23.40;45.30;;;;;;5002452;28;20053;-55
2023/07/19 11:03:08;;;;;;;10.85;4.53;;;23.40;45.50;;;;;;5002469;28;20053;-59
2023/07/19 11:05:41;;;;;;;15.15;4.97;;;23.40;45.90;;;;;;5005999;28;20052;-57
2023/07/19 11:08:09;;;;;;;8.98;4.28;;;23.30;46.20;;;;;;5006171;28;20103;-58
2023/07/19 11:10:36;;;;;;;7.15;3.47;;;23.30;45.90;;;;;;5006907;28;20061;-56
2023/07/19 11:13:04;;;;;;;13.18;4.47;;;23.30;46.20;;;;;;5007596;28;20050;-55
2023/07/19 11:15:31;;;;;;;9.05;4.25;;;23.40;46.20;;;;;;5005559;28;21129;-59
2023/07/19 11:17:59;;;;;;;15.65;5.43;;;23.40;46.20;;;;;;5006131;28;20765;-59
2023/07/19 11:20:31;;;;;;;13.10;5.50;;;23.40;45.60;;;;;;5007515;28;20061;-57
2023/07/19 11:23:08;;;;;;;9.77;4.40;;;23.50;46.10;;;;;;5007516;28;20482;-58
2023/07/19 11:25:38;;;;;;;11.07;4.70;;;23.50;46.80;;;;;;5007566;28;20108;-58
2023/07/19 11:28:06;;;;;;;12.48;5.10;;;23.60;47.60;;;;;;5007214;28;20054;-58
2023/07/19 11:30:37;;;;;;;7.25;4.32;;;23.60;47.30;;;;;;5006399;28;20410;-57
2023/07/19 11:33:05;;;;;;;8.85;4.05;;;23.70;47.10;;;;;;5006350;28;20418;-58
2023/07/19 11:35:32;;;;;;;8.02;4.45;;;23.70;47.20;;;;;;5005526;28;20053;-58
2023/07/19 11:37:59;;;;;;;11.32;4.63;;;23.80;47.10;;;;;;5006805;28;20516;-60
2023/07/19 11:40:28;;;;;;;9.57;4.32;;;23.80;47.70;;;;;;5006465;28;20058;-59
2023/07/19 11:42:57;;;;;;;10.90;4.60;;;23.90;47.40;;;;;;5005806;28;20057;-58
2023/07/19 11:45:26;;;;;;;7.90;4.38;;;24.00;47.40;;;;;;5005893;28;20417;-58
2023/07/19 11:47:56;;;;;;;8.30;4.32;;;24.00;47.30;;;;;;5006232;28;20042;-56
2023/07/19 11:50:24;;;;;;;10.77;4.80;;;24.10;47.10;;;;;;5006994;28;20076;-57
2023/07/19 11:52:55;;;;;;;14.27;4.90;;;24.20;46.70;;;;;;5006030;28;20053;-58
2023/07/19 11:55:24;;;;;;;16.08;4.78;;;24.20;46.90;;;;;;5005839;28;20521;-57
2023/07/19 11:57:55;;;;;;;8.70;3.90;;;24.30;46.60;;;;;;5005051;28;20061;-57
2023/07/19 12:00:23;;;;;;;8.02;4.20;;;24.30;46.50;;;;;;5004730;28;20064;-58
2023/07/19 12:02:52;;;;;;;11.27;6.20;;;24.40;46.60;;;;;;5005202;28;20041;-54
2023/07/19 12:05:22;;;;;;;7.80;4.43;;;24.50;45.50;;;;;;5006911;28;21298;-57
2023/07/19 12:07:50;;;;;;;13.35;6.20;;;24.50;45.70;;;;;;5005467;28;20405;-57
2023/07/19 12:10:18;;;;;;;13.00;6.03;;;24.50;45.20;;;;;;5005413;28;20058;-58
2023/07/19 12:12:48;;;;;;;15.82;6.07;;;24.60;45.00;;;;;;5005259;28;20050;-58
2023/07/19 12:15:18;;;;;;;12.10;5.30;;;24.60;44.80;;;;;;5003759;28;20057;-54
2023/07/19 12:17:45;;;;;;;10.88;5.68;;;24.60;44.90;;;;;;5005467;28;20064;-57
2023/07/19 12:20:13;;;;;;;12.88;5.63;;;24.60;44.50;;;;;;5006109;28;20070;-57
2023/07/19 12:22:42;;;;;;;10.25;4.47;;;24.60;44.70;;;;;;5005265;28;20057;-58
2023/07/19 12:25:10;;;;;;;11.80;4.57;;;24.60;44.90;;;;;;5004702;28;20064;-57
2023/07/19 12:27:39;;;;;;;12.30;4.38;;;24.70;44.60;;;;;;5004900;28;20064;-57
2023/07/19 12:30:09;;;;;;;13.52;4.97;;;24.70;44.60;;;;;;5005471;28;20057;-53
2023/07/19 12:32:39;;;;;;;10.45;4.72;;;24.80;44.60;;;;;;5003962;28;20057;-54
2023/07/19 12:35:06;;;;;;;14.73;4.20;;;24.80;44.70;;;;;;5005163;28;20057;-58
2023/07/19 12:37:34;;;;;;;10.07;4.50;;;24.90;44.30;;;;;;5006080;28;20065;-56
2023/07/19 12:40:05;;;;;;;9.25;3.95;;;25.00;44.30;;;;;;5005250;28;20069;-51
2023/07/19 12:42:33;;;;;;;10.57;4.55;;;25.00;44.40;;;;;;5003752;28;20064;-52
2023/07/19 12:45:00;;;;;;;8.27;3.72;;;25.10;43.70;;;;;;5004291;28;20061;-54
2023/07/19 12:47:28;;;;;;;8.18;3.65;;;25.20;42.90;;;;;;5004007;28;20061;-52
2023/07/19 12:49:56;;;;;;;7.57;3.20;;;25.30;42.30;;;;;;5006164;28;20060;-57
2023/07/19 12:52:23;;;;;;;10.85;3.00;;;25.30;42.20;;;;;;5004510;28;20061;-55
2023/07/19 12:54:51;;;;;;;11.25;3.42;;;25.40;42.20;;;;;;5005543;28;20058;-54
2023/07/19 12:57:18;;;;;;;9.80;3.00;;;25.50;41.40;;;;;;5004386;28;20462;-57
2023/07/19 12:59:45;;;;;;;11.98;3.40;;;25.50;40.90;;;;;;5004270;28;20056;-57